Terminal Aerodrome Forecast
Issued by NWS

Home | Current Version | Previous Version | Text Only | Print | Product List | Glossary On
Versions: 1 2 3 4 5 6 7 8 9 10 11 12 13 14 15 16 17 18 19
801
FTUS41 KCAR 051734
TAFBHB
TAF
KBHB 051734Z 0518/0618 03014G20KT 6SM -DZ OVC012
     FM052100 04013KT 4SM -RA OVC008
     FM060500 01016G24KT 4SM -RA OVC003
     FM060800 36014G21KT P6SM OVC008
     FM061000 36013G20KT P6SM OVC015
     FM061500 01009KT P6SM BKN025=

USA.gov is the U.S. government's official web portal to all federal, state and local government web resources and services.